Flight Track Log - Related Links

Times and Time Zones

All times are in EDT time to prevent confusion due to time zone crossing. See the SWA286 flight status page for this flight to view local times or setup timezone preferences in your user account.


Time Position Orientation Groundspeed Altitude Reporting Facility
EDT Latitude Longitude Course Direction KTS MPH feet Rate Location/Type
Mon 03:13:10 PM 40.7833 -73.1167 172° South 139 160 1,500  Level New York TRACON
Mon 03:14:46 PM 40.7228 -73.1056 172° South 164 189 4,000 962 Climbing Boston Center
Mon 03:15:46 PM 40.7381 -73.0153 77° East 144 166 4,000 2,164 Level Boston Center
Mon 03:16:48 PM 40.7386 -72.8919 90° East 215 247 8,400 3,934 Climbing Boston Center
Mon 03:17:48 PM 40.6950 -72.7986 122° Southeast 286 329 12,000 3,800 Climbing Boston Center
Mon 03:18:48 PM 40.6117 -72.8447 203° Southwest 218 251 16,000 3,966 Climbing Boston Center
Mon 03:19:46 PM 40.5300 -72.9206 215° Southwest 271 312 19,800 3,864 Climbing Boston Center
Mon 03:20:46 PM 40.4506 -73.0044 219° Southwest 325 374 23,600 2,523 Climbing Boston Center
Mon 03:23:01 PM 40.2747 -73.1933 219° Southwest 365 420 28,000 1,354 Climbing Washington Center
Mon 03:24:01 PM 40.1953 -73.2775 219° Southwest 365 420 28,000  Level Washington Center
Mon 03:25:02 PM 40.1156 -73.3589 218° Southwest 365 420 28,000  Level Washington Center
Mon 03:26:01 PM 40.0250 -73.4214 208° Southwest 365 420 28,000  Level Washington Center
Mon 03:27:01 PM 39.9344 -73.4864 209° Southwest 370 426 28,000  Level Washington Center
Mon 03:28:01 PM 39.8439 -73.5486 208° Southwest 370 426 28,000  Level Washington Center
Mon 03:29:01 PM 39.7514 -73.6133 208° Southwest 370 426 28,000  Level Washington Center
Mon 03:30:01 PM 39.6669 -73.6883 214° Southwest 370 426 28,000  Level Washington Center
Mon 03:31:01 PM 39.5933 -73.7739 222° Southwest 370 426 28,000 -450 Level Washington Center
Mon 03:32:01 PM 39.5175 -73.8644 223° Southwest 370 426 27,100 -1,450 Descending Washington Center
Mon 03:33:01 PM 39.4439 -73.9522 223° Southwest 370 426 25,100 -1,550 Descending Washington Center
Mon 03:34:01 PM 39.3700 -74.0372 222° Southwest 370 426 24,000 -550 Descending Washington Center
Mon 03:35:01 PM 39.2981 -74.1219 222° Southwest 364 419 24,000  Level Washington Center
Mon 03:36:02 PM 39.2242 -74.2039 221° Southwest 359 413 24,000 -100 Level Washington Center
Mon 03:37:01 PM 39.1519 -74.2881 222° Southwest 359 413 23,800 -655 Descending Washington Center
Mon 03:38:01 PM 39.0800 -74.3722 222° Southwest 359 413 22,700 -1,050 Descending Washington Center
Mon 03:39:01 PM 39.0078 -74.4536 221° Southwest 354 407 21,700 -1,000 Descending Washington Center
Mon 03:40:01 PM 38.9419 -74.5375 225° Southwest 354 407 20,700 -1,000 Descending Washington Center
Mon 03:41:01 PM 38.9200 -74.6497 256° West 328 377 19,700 -1,000 Descending Washington Center
Mon 03:42:01 PM 38.9000 -74.7594 257° West 328 377 18,700 -950 Descending Washington Center
Mon 03:43:01 PM 38.8756 -74.8717 254° West 328 377 17,800 -950 Descending Washington Center
Mon 03:44:01 PM 38.8575 -74.9706 257° West 309 356 16,800 -893 Descending Washington Center
Mon 03:45:02 PM 38.8369 -75.0719 255° West 304 350 16,000 -400 Descending Washington Center
Mon 03:46:01 PM 38.8208 -75.1628 257° West 298 343 16,000 -650 Level Washington Center
Mon 03:47:02 PM 38.8064 -75.2614 259° West 298 343 14,700 -1,200 Descending Washington Center
Mon 03:48:01 PM 38.8006 -75.3678 266° West 298 343 13,600 -1,059 Descending Washington Center
Mon 03:49:01 PM 38.7944 -75.4692 266° West 292 336 12,600 -1,000 Descending Washington Center
Mon 03:50:01 PM 38.7883 -75.5703 266° West 292 336 11,600 -793 Descending Washington Center
Mon 03:51:02 PM 38.7819 -75.6636 265° West 292 336 11,000 -300 Descending Washington Center
Mon 03:52:01 PM 38.7778 -75.7567 267° West 280 322 11,000  Level Washington Center
Mon 03:53:01 PM 38.7714 -75.8525 265° West 275 316 11,000  Level Washington Center
Mon 03:54:01 PM 38.7628 -75.9483 263° West 275 316 11,000  Level Washington Center
Mon 03:55:01 PM 38.7542 -76.0417 263° West 275 316 11,000 -250 Level Washington Center
Mon 03:56:01 PM 38.7808 -76.1322 291° West 268 308 10,500 -1,100 Descending Washington Center
Mon 03:57:01 PM 38.8200 -76.2231 299° West 268 308 8,800 -1,650 Descending Washington Center
Mon 03:58:01 PM 38.8236 -76.3164 273° West 268 308 7,200 -900 Descending Washington Center
Mon 03:59:01 PM 38.8606 -76.3967 301° West 261 300 7,000 -621 Descending Washington Center
Mon 03:59:57 PM 38.9000 -76.4833 300° West 271 312 6,000 -1,026 Descending Potomac TRACON
Mon 04:00:58 PM 38.9500 -76.5500 314° West 268 308 5,000 -991 Descending Potomac TRACON
Mon 04:01:52 PM 38.9833 -76.6333 297° West 271 312 4,100 -526 Descending Potomac TRACON
Mon 04:02:52 PM 39.0167 -76.7167 297° West 265 305 4,000 -793 Descending Potomac TRACON
Mon 04:03:53 PM 39.0667 -76.7833 314° West 279 321 2,500 -1,041 Descending Potomac TRACON
Mon 04:04:53 PM 39.1167 -76.8333 322° Northwest 262 302 1,900 -250 Descending Potomac TRACON
Mon 04:05:53 PM 39.1833 -76.8000 21° North 218 251 2,000 -261 Climbing Potomac TRACON
Mon 04:06:48 PM 39.1833 -76.7500 90° East 154 177 1,400 -835 Descending Potomac TRACON
Mon 04:07:48 PM 39.1833 -76.7000 90° East 119 137 400 -1,000 Descending Potomac TRACON
Mon 04:09:00 PM 39.1667 -76.6667 104° East  Level FlightAware Approximate
Mon 04:16:00 PM 39.1754 -76.6683 104° East  Level Estimated
Mon 04:17:00 PM 39.1754 -76.6683 104° East  Level Estimated
Mon 04:18:00 PM 39.1754 -76.6683 104° East  Level Estimated
Mon 04:19:00 PM 39.1754 -76.6683 104° East  Level Estimated

Login

Don't have an account? Register now (free) for customized features, flight alerts, and more!